createdAt,value
2019-01-11T00:00:01.486Z,927.65
2019-01-11T00:00:14.462Z,927.82
2019-01-11T00:00:28.215Z,927.86
2019-01-11T00:00:41.211Z,927.74
2019-01-11T00:00:54.226Z,927.73
2019-01-11T00:01:07.251Z,927.73
2019-01-11T00:01:20.216Z,927.68
2019-01-11T00:01:33.224Z,927.69
2019-01-11T00:01:46.216Z,927.74
2019-01-11T00:01:59.242Z,927.79
2019-01-11T00:02:12.271Z,927.73
2019-01-11T00:02:25.257Z,927.73
2019-01-11T00:02:38.168Z,927.71
2019-01-11T00:02:51.154Z,927.69
2019-01-11T00:03:04.150Z,927.7
2019-01-11T00:03:17.167Z,927.72
2019-01-11T00:03:30.144Z,927.71
2019-01-11T00:03:44.196Z,927.72
2019-01-11T00:03:57.241Z,927.66
2019-01-11T00:04:10.246Z,927.73
2019-01-11T00:04:23.237Z,927.65
2019-01-11T00:04:35.835Z,927.7
2019-01-11T00:04:48.787Z,927.67
2019-01-11T00:05:01.368Z,927.68
2019-01-11T00:05:14.397Z,927.65
2019-01-11T00:05:27.417Z,927.65
2019-01-11T00:05:40.394Z,927.63
2019-01-11T00:05:53.415Z,927.62
2019-01-11T00:06:06.442Z,927.66
2019-01-11T00:06:19.416Z,927.66
2019-01-11T00:06:32.404Z,927.63
2019-01-11T00:06:45.349Z,927.65
2019-01-11T00:06:58.365Z,927.65
2019-01-11T00:07:11.414Z,927.66
2019-01-11T00:07:24.351Z,927.65
2019-01-11T00:07:37.350Z,927.6
2019-01-11T00:07:50.293Z,927.62
2019-01-11T00:08:03.238Z,927.61
2019-01-11T00:08:16.231Z,927.65
2019-01-11T00:08:28.755Z,927.64
2019-01-11T00:08:41.787Z,927.59
2019-01-11T00:08:54.769Z,927.6
2019-01-11T00:09:07.719Z,927.64
2019-01-11T00:09:20.241Z,927.65
2019-01-11T00:09:33.241Z,927.67
2019-01-11T00:09:46.255Z,927.66
2019-01-11T00:09:59.282Z,927.65
2019-01-11T00:10:12.310Z,927.66
2019-01-11T00:10:25.335Z,927.68
2019-01-11T00:10:38.314Z,927.66
2019-01-11T00:10:51.325Z,927.63
2019-01-11T00:11:04.329Z,927.67
2019-01-11T00:11:17.325Z,927.7
2019-01-11T00:11:30.344Z,927.7
2019-01-11T00:11:43.351Z,927.73
2019-01-11T00:11:56.335Z,927.7
2019-01-11T00:12:10.052Z,927.74
2019-01-11T00:12:23.013Z,927.79
2019-01-11T00:12:35.981Z,927.72
2019-01-11T00:12:48.969Z,927.81
2019-01-11T00:13:01.998Z,927.8
2019-01-11T00:13:15.026Z,927.82
2019-01-11T00:13:28.080Z,927.86
2019-01-11T00:13:41.025Z,927.83
2019-01-11T00:13:54.042Z,927.85
2019-01-11T00:14:07.038Z,927.87
2019-01-11T00:14:20.101Z,927.88
2019-01-11T00:14:33.062Z,927.88
2019-01-11T00:14:46.073Z,927.9
2019-01-11T00:14:59.090Z,927.9
2019-01-11T00:15:12.132Z,927.9
2019-01-11T00:15:25.791Z,927.97
2019-01-11T00:15:38.730Z,927.94
2019-01-11T00:15:51.731Z,927.94
2019-01-11T00:16:04.686Z,927.91
2019-01-11T00:16:17.678Z,927.96
2019-01-11T00:16:30.706Z,927.95
2019-01-11T00:16:43.687Z,927.97
2019-01-11T00:16:56.688Z,928
2019-01-11T00:17:09.682Z,927.97
2019-01-11T00:17:22.635Z,927.97
2019-01-11T00:17:35.590Z,927.99
2019-01-11T00:17:48.564Z,928
2019-01-11T00:18:02.383Z,927.95
2019-01-11T00:18:15.405Z,927.97
2019-01-11T00:18:28.399Z,927.92
2019-01-11T00:18:41.339Z,927.88
2019-01-11T00:18:54.326Z,927.9
2019-01-11T00:19:11.239Z,927.86
2019-01-11T00:19:24.263Z,927.84
2019-01-11T00:19:37.243Z,927.8
2019-01-11T00:19:50.277Z,927.79
2019-01-11T00:20:07.783Z,927.82
2019-01-11T00:20:20.790Z,927.77
2019-01-11T00:20:33.987Z,927.75
2019-01-11T00:20:46.959Z,927.78
2019-01-11T00:20:59.928Z,927.74
2019-01-11T00:21:12.910Z,927.74
2019-01-11T00:21:26.006Z,927.73
2019-01-11T00:21:38.986Z,927.76
2019-01-11T00:21:51.975Z,927.74
2019-01-11T00:22:04.987Z,927.72
2019-01-11T00:22:17.979Z,927.7
2019-01-11T00:22:31.013Z,927.67
2019-01-11T00:22:44.002Z,927.72
2019-01-11T00:22:57.030Z,927.7
2019-01-11T00:23:10.931Z,927.7
2019-01-11T00:23:24.030Z,927.72
2019-01-11T00:23:37.004Z,927.71
2019-01-11T00:23:50.035Z,927.73
2019-01-11T00:24:03.040Z,927.78
2019-01-11T00:24:16.021Z,927.8
2019-01-11T00:24:29.024Z,927.83
2019-01-11T00:24:41.948Z,927.82
2019-01-11T00:24:54.978Z,927.85
2019-01-11T00:25:07.926Z,927.88
2019-01-11T00:25:20.967Z,927.89
2019-01-11T00:25:33.919Z,927.91
2019-01-11T00:25:46.915Z,927.91
2019-01-11T00:25:59.892Z,927.93
2019-01-11T00:26:12.908Z,927.94
2019-01-11T00:26:25.862Z,927.94
2019-01-11T00:26:38.813Z,927.98
2019-01-11T00:26:51.837Z,927.97
2019-01-11T00:27:04.812Z,928
2019-01-11T00:27:17.845Z,928.01
2019-01-11T00:27:30.835Z,928.02
2019-01-11T00:27:43.815Z,928.06
2019-01-11T00:27:56.777Z,928.09
2019-01-11T00:28:09.823Z,928.06
2019-01-11T00:28:22.419Z,928.05
2019-01-11T00:28:35.423Z,928.04
2019-01-11T00:28:48.435Z,928.03
2019-01-11T00:29:01.437Z,928.06
2019-01-11T00:29:14.462Z,928.05
2019-01-11T00:29:27.474Z,928.08
2019-01-11T00:29:40.504Z,928.05
2019-01-11T00:29:53.526Z,928.07
2019-01-11T00:30:06.482Z,928.09
2019-01-11T00:30:19.437Z,928.08
2019-01-11T00:30:33.130Z,928.1
2019-01-11T00:30:45.635Z,928.12
2019-01-11T00:30:58.566Z,928.09
2019-01-11T00:31:11.525Z,928.11
2019-01-11T00:31:24.513Z,928.11
2019-01-11T00:31:37.461Z,928.12
2019-01-11T00:31:50.452Z,928.14
2019-01-11T00:32:03.411Z,928.1
2019-01-11T00:32:16.476Z,928.12
2019-01-11T00:32:29.532Z,928.12
2019-01-11T00:32:42.522Z,928.14
2019-01-11T00:32:55.555Z,928.09
2019-01-11T00:33:08.593Z,928.11
2019-01-11T00:33:21.643Z,928.14
2019-01-11T00:33:34.624Z,928.13
2019-01-11T00:33:47.611Z,928.13
2019-01-11T00:34:01.817Z,928.16
2019-01-11T00:34:14.839Z,928.11
2019-01-11T00:34:27.809Z,928.12
2019-01-11T00:34:40.832Z,928.15
2019-01-11T00:34:53.829Z,928.11
2019-01-11T00:35:06.806Z,928.12
2019-01-11T00:35:19.788Z,928.13
2019-01-11T00:35:32.736Z,928.11
2019-01-11T00:35:45.696Z,928.16
2019-01-11T00:35:58.642Z,928.15
2019-01-11T00:36:11.706Z,928.14
2019-01-11T00:36:24.728Z,928.14
2019-01-11T00:36:37.741Z,928.14
2019-01-11T00:36:50.708Z,928.17
2019-01-11T00:37:03.729Z,928.14
2019-01-11T00:37:16.746Z,928.17
2019-01-11T00:37:29.754Z,928.17
2019-01-11T00:37:42.721Z,928.18
2019-01-11T00:37:55.695Z,928.15
2019-01-11T00:38:08.647Z,928.16
2019-01-11T00:38:21.624Z,928.22
2019-01-11T00:38:34.638Z,928.22
2019-01-11T00:38:47.645Z,928.22
2019-01-11T00:39:00.746Z,928.27
2019-01-11T00:39:13.736Z,928.22
2019-01-11T00:39:26.256Z,928.29
2019-01-11T00:39:39.253Z,928.22
2019-01-11T00:39:51.817Z,928.29
2019-01-11T00:40:04.798Z,928.2
2019-01-11T00:40:17.824Z,928.26
2019-01-11T00:40:30.798Z,928.25
2019-01-11T00:40:43.775Z,928.26
2019-01-11T00:40:56.698Z,928.25
2019-01-11T00:41:09.681Z,928.27
2019-01-11T00:41:22.632Z,928.27
2019-01-11T00:41:35.635Z,928.24
2019-01-11T00:41:48.545Z,928.31
2019-01-11T00:42:01.456Z,928.33
2019-01-11T00:42:14.454Z,928.32
2019-01-11T00:42:27.415Z,928.34
2019-01-11T00:42:40.411Z,928.34
2019-01-11T00:42:53.448Z,928.38
2019-01-11T00:43:06.470Z,928.35
2019-01-11T00:43:25.111Z,928.39
2019-01-11T00:43:38.022Z,928.39
2019-01-11T00:43:51.003Z,928.41
2019-01-11T00:44:03.954Z,928.39
2019-01-11T00:44:16.954Z,928.41
2019-01-11T00:44:29.926Z,928.4
2019-01-11T00:44:42.887Z,928.38
2019-01-11T00:44:55.861Z,928.4
2019-01-11T00:45:08.850Z,928.39
2019-01-11T00:45:21.822Z,928.44
2019-01-11T00:45:35.255Z,928.43
2019-01-11T00:45:48.273Z,928.44
2019-01-11T00:46:01.260Z,928.44
2019-01-11T00:46:14.289Z,928.44
2019-01-11T00:46:27.327Z,928.47
2019-01-11T00:46:40.351Z,928.48
2019-01-11T00:46:53.330Z,928.49
2019-01-11T00:47:06.336Z,928.49
2019-01-11T00:47:18.841Z,928.52
2019-01-11T00:47:31.778Z,928.54
2019-01-11T00:47:44.738Z,928.54
2019-01-11T00:47:57.671Z,928.55
2019-01-11T00:48:10.703Z,928.58
2019-01-11T00:48:23.712Z,928.57
2019-01-11T00:48:36.726Z,928.6
2019-01-11T00:48:49.785Z,928.57
2019-01-11T00:49:02.760Z,928.59
2019-01-11T00:49:20.571Z,928.61
2019-01-11T00:49:33.505Z,928.6
2019-01-11T00:49:46.512Z,928.69
2019-01-11T00:49:59.461Z,928.56
2019-01-11T00:50:12.427Z,928.63
2019-01-11T00:50:25.423Z,928.64
2019-01-11T00:50:38.626Z,928.67
2019-01-11T00:50:51.617Z,928.59
2019-01-11T00:51:04.602Z,928.75
2019-01-11T00:51:17.630Z,928.6
2019-01-11T00:51:30.632Z,928.57
2019-01-11T00:51:43.647Z,928.57
2019-01-11T00:51:56.608Z,928.58
2019-01-11T00:52:09.670Z,928.61
2019-01-11T00:52:22.628Z,928.61
2019-01-11T00:52:35.628Z,928.57
2019-01-11T00:52:48.645Z,928.62
2019-01-11T00:53:01.729Z,928.57
2019-01-11T00:53:14.779Z,928.56
2019-01-11T00:53:27.772Z,928.56
2019-01-11T00:53:40.766Z,928.6
2019-01-11T00:53:53.747Z,928.55
2019-01-11T00:54:06.728Z,928.55
2019-01-11T00:54:19.722Z,928.51
2019-01-11T00:54:32.705Z,928.52
2019-01-11T00:54:45.632Z,928.52
2019-01-11T00:54:58.642Z,928.47
2019-01-11T00:55:13.112Z,928.53
2019-01-11T00:55:26.130Z,928.5
2019-01-11T00:55:39.070Z,928.53
2019-01-11T00:55:52.039Z,928.45
2019-01-11T00:56:05.041Z,928.48
2019-01-11T00:56:18.079Z,928.42
2019-01-11T00:56:30.983Z,928.47
2019-01-11T00:56:44.020Z,928.47
2019-01-11T00:56:57.017Z,928.45
2019-01-11T00:57:09.986Z,928.46
2019-01-11T00:57:22.971Z,928.44
2019-01-11T00:57:35.965Z,928.42
2019-01-11T00:57:48.942Z,928.43
2019-01-11T00:58:01.923Z,928.43
2019-01-11T00:58:14.964Z,928.45
2019-01-11T00:58:27.908Z,928.45
2019-01-11T00:58:40.906Z,928.45
2019-01-11T00:58:53.909Z,928.47
2019-01-11T00:59:06.931Z,928.46
2019-01-11T00:59:19.941Z,928.42
2019-01-11T00:59:32.901Z,928.43
2019-01-11T00:59:45.926Z,928.48
2019-01-11T00:59:58.925Z,928.46
2019-01-11T01:00:11.846Z,928.4
2019-01-11T01:00:25.209Z,928.43
2019-01-11T01:00:38.166Z,928.46
2019-01-11T01:00:51.878Z,928.43
2019-01-11T01:01:04.392Z,928.46
2019-01-11T01:01:17.406Z,928.44
2019-01-11T01:01:30.451Z,928.49
2019-01-11T01:01:43.480Z,928.47
2019-01-11T01:01:56.543Z,928.45
2019-01-11T01:02:09.536Z,928.44
2019-01-11T01:02:22.478Z,928.53
2019-01-11T01:02:35.478Z,928.46
2019-01-11T01:02:48.452Z,928.43
2019-01-11T01:03:01.517Z,928.46
2019-01-11T01:03:14.522Z,928.4
2019-01-11T01:03:27.464Z,928.42
2019-01-11T01:03:40.418Z,928.41
2019-01-11T01:03:53.386Z,928.43
2019-01-11T01:04:06.373Z,928.42
2019-01-11T01:04:19.343Z,928.43
2019-01-11T01:04:32.345Z,928.44
2019-01-11T01:04:45.388Z,928.37
2019-01-11T01:04:58.376Z,928.44
2019-01-11T01:05:11.360Z,928.43
2019-01-11T01:05:24.330Z,928.43
2019-01-11T01:05:37.319Z,928.41
2019-01-11T01:05:50.341Z,928.4
2019-01-11T01:06:03.329Z,928.44
2019-01-11T01:06:16.275Z,928.41
2019-01-11T01:06:29.326Z,928.42
2019-01-11T01:06:42.320Z,928.41
2019-01-11T01:06:55.351Z,928.42
2019-01-11T01:07:08.389Z,928.42
2019-01-11T01:07:21.331Z,928.39
2019-01-11T01:07:34.785Z,928.43
2019-01-11T01:07:47.803Z,928.46
2019-01-11T01:08:00.800Z,928.43
2019-01-11T01:08:13.759Z,928.42
2019-01-11T01:08:31.612Z,928.41
2019-01-11T01:08:44.564Z,928.45
2019-01-11T01:08:57.510Z,928.39
2019-01-11T01:09:10.543Z,928.39
2019-01-11T01:09:23.557Z,928.4
2019-01-11T01:09:36.541Z,928.44
2019-01-11T01:09:49.521Z,928.33
2019-01-11T01:10:02.500Z,928.33
2019-01-11T01:10:15.502Z,928.38
2019-01-11T01:10:28.554Z,928.31
2019-01-11T01:10:41.514Z,928.33
2019-01-11T01:10:54.503Z,928.32
2019-01-11T01:11:07.542Z,928.33
2019-01-11T01:11:20.606Z,928.3
2019-01-11T01:11:33.634Z,928.31
2019-01-11T01:11:46.619Z,928.29
2019-01-11T01:11:59.659Z,928.32
2019-01-11T01:12:12.630Z,928.28
2019-01-11T01:12:25.672Z,928.31
2019-01-11T01:12:38.659Z,928.35
2019-01-11T01:12:51.678Z,928.33
2019-01-11T01:13:04.680Z,928.31
2019-01-11T01:13:17.611Z,928.34
2019-01-11T01:13:30.559Z,928.32
2019-01-11T01:13:43.557Z,928.38
2019-01-11T01:13:56.468Z,928.34
2019-01-11T01:14:09.431Z,928.38
2019-01-11T01:14:22.437Z,928.4
2019-01-11T01:14:36.834Z,928.37
2019-01-11T01:14:49.911Z,928.35
2019-01-11T01:15:02.884Z,928.35
2019-01-11T01:15:15.866Z,928.37
2019-01-11T01:15:28.846Z,928.35
2019-01-11T01:15:41.859Z,928.37
2019-01-11T01:15:55.817Z,928.35
2019-01-11T01:16:08.831Z,928.36
2019-01-11T01:16:21.796Z,928.43
2019-01-11T01:16:34.817Z,928.4
2019-01-11T01:16:47.779Z,928.46
2019-01-11T01:17:00.773Z,928.4
2019-01-11T01:17:13.740Z,928.45
2019-01-11T01:17:26.740Z,928.46
2019-01-11T01:17:39.733Z,928.52
2019-01-11T01:17:52.757Z,928.47
2019-01-11T01:18:05.745Z,928.51
2019-01-11T01:18:18.735Z,928.53
2019-01-11T01:18:31.682Z,928.54
2019-01-11T01:18:44.649Z,928.54
2019-01-11T01:18:57.615Z,928.56
2019-01-11T01:19:10.637Z,928.56
2019-01-11T01:19:30.038Z,928.65
2019-01-11T01:19:43.084Z,928.66
2019-01-11T01:19:56.085Z,928.66
2019-01-11T01:20:09.102Z,928.69
2019-01-11T01:20:22.148Z,928.77
2019-01-11T01:20:35.132Z,928.79
2019-01-11T01:20:48.109Z,928.82
2019-01-11T01:21:01.168Z,928.82
2019-01-11T01:21:14.159Z,928.81
2019-01-11T01:21:27.204Z,928.8
2019-01-11T01:21:40.204Z,928.87
2019-01-11T01:21:53.191Z,928.91
2019-01-11T01:22:06.250Z,928.87
2019-01-11T01:22:19.273Z,928.94
2019-01-11T01:22:32.208Z,928.87
2019-01-11T01:22:45.241Z,928.87
2019-01-11T01:22:58.216Z,928.89
2019-01-11T01:23:11.183Z,929
2019-01-11T01:23:24.180Z,928.91
2019-01-11T01:23:37.136Z,928.92
2019-01-11T01:23:50.130Z,928.94
2019-01-11T01:24:03.121Z,928.86
2019-01-11T01:24:16.092Z,928.93
2019-01-11T01:24:29.124Z,928.9
2019-01-11T01:24:42.098Z,928.89
2019-01-11T01:24:55.076Z,928.91
2019-01-11T01:25:08.033Z,928.91
2019-01-11T01:25:21.038Z,928.89
2019-01-11T01:25:34.054Z,928.94
2019-01-11T01:25:47.028Z,928.87
2019-01-11T01:25:59.984Z,928.92
2019-01-11T01:26:12.942Z,928.84
2019-01-11T01:26:25.890Z,928.86
2019-01-11T01:26:38.902Z,928.84
2019-01-11T01:26:51.899Z,928.86
2019-01-11T01:27:04.887Z,928.81
2019-01-11T01:27:17.936Z,928.83
2019-01-11T01:27:30.931Z,928.87
2019-01-11T01:27:43.929Z,928.87
2019-01-11T01:27:56.952Z,928.84
2019-01-11T01:28:10.005Z,928.8
2019-01-11T01:28:23.011Z,928.87
2019-01-11T01:28:36.011Z,928.82
2019-01-11T01:28:48.992Z,928.81
2019-01-11T01:29:01.961Z,928.77
2019-01-11T01:29:14.990Z,928.79
2019-01-11T01:29:27.555Z,928.76
2019-01-11T01:29:40.528Z,928.78
2019-01-11T01:29:53.518Z,928.76
2019-01-11T01:30:06.570Z,928.77
2019-01-11T01:30:19.552Z,928.78
2019-01-11T01:30:32.542Z,928.84
2019-01-11T01:30:45.492Z,928.79
2019-01-11T01:30:59.331Z,928.85
2019-01-11T01:31:12.403Z,928.75
2019-01-11T01:31:25.402Z,928.82
2019-01-11T01:31:38.445Z,928.9
2019-01-11T01:31:51.437Z,928.86
2019-01-11T01:32:04.352Z,928.81
2019-01-11T01:32:18.346Z,928.84
2019-01-11T01:32:30.834Z,928.87
2019-01-11T01:32:43.354Z,928.86
2019-01-11T01:32:56.346Z,928.81
2019-01-11T01:33:09.394Z,928.9
2019-01-11T01:33:22.403Z,928.93
2019-01-11T01:33:35.404Z,928.92
2019-01-11T01:33:48.388Z,928.84
2019-01-11T01:34:01.426Z,928.88
2019-01-11T01:34:14.406Z,928.86
2019-01-11T01:34:27.406Z,928.92
2019-01-11T01:34:40.367Z,928.91
2019-01-11T01:34:53.353Z,928.96
2019-01-11T01:35:06.397Z,928.97
2019-01-11T01:35:19.425Z,928.99
2019-01-11T01:35:32.447Z,929
2019-01-11T01:35:45.444Z,929
2019-01-11T01:35:58.445Z,928.98
2019-01-11T01:36:11.452Z,928.98
2019-01-11T01:36:24.387Z,928.96
2019-01-11T01:36:37.408Z,929.02
2019-01-11T01:36:50.376Z,928.97
2019-01-11T01:37:03.378Z,929.1
2019-01-11T01:37:16.355Z,929.08
2019-01-11T01:37:29.327Z,929.02
2019-01-11T01:37:42.697Z,929.08
2019-01-11T01:37:55.639Z,929.03
2019-01-11T01:38:08.642Z,929.07
2019-01-11T01:38:21.568Z,929.03
2019-01-11T01:38:34.606Z,929.04
2019-01-11T01:38:47.581Z,929.06
2019-01-11T01:39:00.640Z,929.06
2019-01-11T01:39:13.579Z,929.07
2019-01-11T01:39:26.576Z,929.09
2019-01-11T01:39:39.572Z,929.08
2019-01-11T01:39:52.627Z,929.06
2019-01-11T01:40:05.627Z,929.06
2019-01-11T01:40:18.596Z,929.1
2019-01-11T01:40:31.647Z,929.12
2019-01-11T01:40:44.568Z,929.16
2019-01-11T01:40:57.542Z,929.14
2019-01-11T01:41:10.460Z,929.16
2019-01-11T01:41:23.415Z,929.21
2019-01-11T01:41:36.377Z,929.25
2019-01-11T01:41:49.368Z,929.28
2019-01-11T01:42:01.906Z,929.34
2019-01-11T01:42:14.862Z,929.45
2019-01-11T01:42:27.380Z,929.52
2019-01-11T01:42:39.918Z,929.54
2019-01-11T01:42:52.934Z,929.63
2019-01-11T01:43:05.978Z,929.67
2019-01-11T01:43:18.981Z,929.77
2019-01-11T01:43:31.994Z,929.8
2019-01-11T01:43:44.944Z,929.79
2019-01-11T01:43:57.898Z,929.82
2019-01-11T01:44:10.945Z,929.82
2019-01-11T01:44:23.920Z,929.81
2019-01-11T01:44:36.940Z,929.87
2019-01-11T01:44:49.931Z,929.91
2019-01-11T01:45:02.937Z,929.87
2019-01-11T01:45:15.888Z,929.95
2019-01-11T01:45:28.886Z,929.91
2019-01-11T01:45:41.821Z,929.95
2019-01-11T01:45:54.761Z,929.9
2019-01-11T01:46:07.692Z,929.84
2019-01-11T01:46:20.712Z,930
2019-01-11T01:46:33.693Z,929.96
2019-01-11T01:46:46.689Z,929.92
2019-01-11T01:46:59.681Z,929.95
2019-01-11T01:47:12.694Z,929.92
2019-01-11T01:47:25.647Z,929.85
2019-01-11T01:47:38.633Z,929.87
2019-01-11T01:47:51.630Z,929.79
2019-01-11T01:48:04.651Z,929.8
2019-01-11T01:48:17.660Z,929.8
2019-01-11T01:48:30.640Z,929.77
2019-01-11T01:48:43.607Z,929.77
2019-01-11T01:48:56.585Z,929.76
2019-01-11T01:49:09.577Z,929.73
2019-01-11T01:49:27.624Z,929.69
2019-01-11T01:49:40.655Z,929.66
2019-01-11T01:49:53.735Z,929.67
2019-01-11T01:50:06.773Z,929.64
2019-01-11T01:50:19.763Z,929.65
2019-01-11T01:50:32.765Z,929.58
2019-01-11T01:50:45.751Z,929.68
2019-01-11T01:50:58.767Z,929.62
2019-01-11T01:51:11.759Z,929.54
2019-01-11T01:51:24.712Z,929.55
2019-01-11T01:51:37.680Z,929.52
2019-01-11T01:51:50.643Z,929.47
2019-01-11T01:52:03.657Z,929.52
2019-01-11T01:52:16.671Z,929.52
2019-01-11T01:52:29.725Z,929.55
2019-01-11T01:52:42.738Z,929.53
2019-01-11T01:52:55.763Z,929.56
2019-01-11T01:53:07.541Z,929.57
2019-01-11T01:53:20.554Z,929.6
2019-01-11T01:53:33.559Z,929.64
2019-01-11T01:53:46.576Z,929.63
2019-01-11T01:53:59.555Z,929.59
2019-01-11T01:54:12.493Z,929.71
2019-01-11T01:54:25.450Z,929.67
2019-01-11T01:54:38.478Z,929.67
2019-01-11T01:54:52.190Z,929.67
2019-01-11T01:55:05.160Z,929.72
2019-01-11T01:55:18.186Z,929.72
2019-01-11T01:55:31.233Z,929.67
2019-01-11T01:55:44.260Z,929.76
2019-01-11T01:55:57.300Z,929.79
2019-01-11T01:56:10.280Z,929.8
2019-01-11T01:56:23.188Z,929.82
2019-01-11T01:56:36.217Z,929.83
2019-01-11T01:56:49.256Z,929.7
2019-01-11T01:57:02.244Z,929.83
2019-01-11T01:57:15.275Z,929.85
2019-01-11T01:57:28.325Z,929.88
2019-01-11T01:57:41.317Z,929.89
2019-01-11T01:57:54.343Z,929.97
2019-01-11T01:58:07.326Z,929.82
2019-01-11T01:58:20.321Z,929.9
2019-01-11T01:58:33.365Z,929.91
2019-01-11T01:58:46.420Z,929.9
2019-01-11T01:58:59.421Z,929.91
2019-01-11T01:59:12.480Z,929.99
2019-01-11T01:59:25.463Z,929.99
2019-01-11T01:59:38.035Z,929.9
2019-01-11T01:59:50.978Z,929.92
2019-01-11T02:00:03.963Z,929.93
2019-01-11T02:00:16.976Z,929.92
2019-01-11T02:00:29.956Z,929.87
2019-01-11T02:00:42.913Z,929.89
2019-01-11T02:00:55.860Z,929.89
2019-01-11T02:01:09.543Z,929.91
2019-01-11T02:01:22.540Z,929.91
2019-01-11T02:01:35.484Z,929.9
2019-01-11T02:01:48.455Z,929.91
2019-01-11T02:02:01.440Z,929.88
2019-01-11T02:02:14.436Z,929.94
2019-01-11T02:02:27.430Z,929.94
2019-01-11T02:02:40.399Z,929.9
2019-01-11T02:02:53.372Z,929.9
2019-01-11T02:03:06.323Z,929.91
2019-01-11T02:03:19.321Z,929.89
2019-01-11T02:03:32.348Z,929.89
2019-01-11T02:03:45.370Z,929.91
2019-01-11T02:03:58.304Z,929.98
2019-01-11T02:04:11.235Z,930.02
2019-01-11T02:04:24.183Z,929.99
2019-01-11T02:04:37.176Z,929.96
2019-01-11T02:04:50.172Z,929.88
2019-01-11T02:05:03.180Z,929.92
2019-01-11T02:05:15.689Z,929.9
2019-01-11T02:05:28.625Z,929.88
2019-01-11T02:05:41.639Z,930.02
2019-01-11T02:05:54.685Z,930
2019-01-11T02:06:07.614Z,929.93
2019-01-11T02:06:20.567Z,929.94
2019-01-11T02:06:33.563Z,929.92
2019-01-11T02:06:46.516Z,929.94
2019-01-11T02:06:59.511Z,929.97
2019-01-11T02:07:12.496Z,930
2019-01-11T02:07:25.500Z,929.98
2019-01-11T02:07:38.507Z,929.94
2019-01-11T02:07:51.557Z,929.98
2019-01-11T02:08:04.563Z,929.97
2019-01-11T02:08:17.547Z,929.99
2019-01-11T02:08:30.486Z,930.02
2019-01-11T02:08:43.506Z,929.96
2019-01-11T02:08:56.498Z,929.97
2019-01-11T02:09:09.507Z,930.01
2019-01-11T02:09:22.487Z,930
2019-01-11T02:09:35.475Z,930
2019-01-11T02:09:48.457Z,929.98
2019-01-11T02:10:01.428Z,930.01
2019-01-11T02:10:14.389Z,930.03
2019-01-11T02:10:27.382Z,929.99
2019-01-11T02:10:40.381Z,929.97
2019-01-11T02:10:53.392Z,929.99
2019-01-11T02:11:06.387Z,929.97
2019-01-11T02:11:19.392Z,930.03
2019-01-11T02:11:32.314Z,930.05
2019-01-11T02:11:45.279Z,930.07
2019-01-11T02:11:58.221Z,930.06
2019-01-11T02:12:11.219Z,930.11
2019-01-11T02:12:24.187Z,930.1
2019-01-11T02:12:37.169Z,930.09
2019-01-11T02:12:50.118Z,930.11
2019-01-11T02:13:03.118Z,930.11
2019-01-11T02:13:16.145Z,930.11
2019-01-11T02:13:29.190Z,930.15
2019-01-11T02:13:42.226Z,930.14
2019-01-11T02:13:55.228Z,930.07
2019-01-11T02:14:08.170Z,930.12
2019-01-11T02:14:21.194Z,930.04
2019-01-11T02:14:34.190Z,930.06
2019-01-11T02:14:47.101Z,930.06
2019-01-11T02:15:00.183Z,930.06
2019-01-11T02:15:13.156Z,930.04
2019-01-11T02:15:26.149Z,930.03
2019-01-11T02:15:39.145Z,930.03
2019-01-11T02:15:52.117Z,930
2019-01-11T02:16:05.086Z,930.01
2019-01-11T02:16:19.250Z,930.01
2019-01-11T02:16:32.279Z,930.02
2019-01-11T02:16:45.321Z,930.07
2019-01-11T02:16:58.305Z,929.99
2019-01-11T02:17:11.318Z,930.01
2019-01-11T02:17:24.370Z,930.03
2019-01-11T02:17:37.368Z,930.04
2019-01-11T02:17:50.353Z,930.04
2019-01-11T02:18:03.365Z,930.08
2019-01-11T02:18:16.369Z,930.08
2019-01-11T02:18:29.428Z,930.08
2019-01-11T02:18:42.442Z,930.09
2019-01-11T02:18:56.431Z,930.1
2019-01-11T02:19:09.397Z,930.15
2019-01-11T02:19:22.436Z,930.15
2019-01-11T02:19:40.073Z,930.08
2019-01-11T02:19:53.017Z,930.11
2019-01-11T02:20:06.045Z,930.13
2019-01-11T02:20:19.039Z,930.06
2019-01-11T02:20:32.068Z,930.07
2019-01-11T02:20:45.010Z,930.07
2019-01-11T02:20:58.045Z,930.01
2019-01-11T02:21:10.966Z,930.02
2019-01-11T02:21:23.940Z,930.04
2019-01-11T02:21:36.910Z,930.06
2019-01-11T02:21:49.876Z,930.05
2019-01-11T02:22:02.906Z,930.11
2019-01-11T02:22:15.848Z,930.05
2019-01-11T02:22:28.805Z,930.04
2019-01-11T02:22:41.772Z,930.08
2019-01-11T02:22:54.756Z,930.14
2019-01-11T02:23:07.792Z,930.03
2019-01-11T02:23:20.767Z,930.14
2019-01-11T02:23:33.775Z,930.15
2019-01-11T02:23:46.809Z,930.21
2019-01-11T02:23:59.804Z,930.2
2019-01-11T02:24:12.833Z,930.2
2019-01-11T02:24:25.758Z,930.22
2019-01-11T02:24:38.745Z,930.16
2019-01-11T02:24:51.681Z,930.17
2019-01-11T02:25:04.693Z,930.21
2019-01-11T02:25:17.650Z,930.2
2019-01-11T02:25:30.687Z,930.18
2019-01-11T02:25:49.735Z,930.23
2019-01-11T02:26:02.763Z,930.25
2019-01-11T02:26:15.729Z,930.21
2019-01-11T02:26:28.733Z,930.23
2019-01-11T02:26:41.746Z,930.25
2019-01-11T02:26:54.819Z,930.29
2019-01-11T02:27:07.778Z,930.3
2019-01-11T02:27:20.795Z,930.32
2019-01-11T02:27:33.793Z,930.32
2019-01-11T02:27:46.739Z,930.32
2019-01-11T02:27:59.763Z,930.34
2019-01-11T02:28:12.720Z,930.36
2019-01-11T02:28:25.734Z,930.34
2019-01-11T02:28:38.716Z,930.35
2019-01-11T02:28:51.711Z,930.38
2019-01-11T02:29:04.666Z,930.45
2019-01-11T02:29:17.649Z,930.45
2019-01-11T02:29:30.557Z,930.41
2019-01-11T02:29:43.538Z,930.5
2019-01-11T02:29:56.587Z,930.49
2019-01-11T02:30:09.605Z,930.5
2019-01-11T02:30:22.647Z,930.49
2019-01-11T02:30:35.592Z,930.44
2019-01-11T02:30:48.617Z,930.45
2019-01-11T02:31:03.001Z,930.42
2019-01-11T02:31:16.787Z,930.38
2019-01-11T02:31:29.802Z,930.41
2019-01-11T02:31:42.864Z,930.42
2019-01-11T02:31:55.866Z,930.42
2019-01-11T02:32:08.833Z,930.43
2019-01-11T02:32:21.814Z,930.37
2019-01-11T02:32:34.775Z,930.39
2019-01-11T02:32:54.016Z,930.36
2019-01-11T02:33:07.017Z,930.32
2019-01-11T02:33:26.147Z,930.28
2019-01-11T02:33:39.102Z,930.3
2019-01-11T02:33:52.133Z,930.26
2019-01-11T02:34:05.100Z,930.28
2019-01-11T02:34:18.072Z,930.26
2019-01-11T02:34:31.123Z,930.27
2019-01-11T02:34:44.124Z,930.27
2019-01-11T02:34:57.159Z,930.24
2019-01-11T02:35:10.175Z,930.24
2019-01-11T02:35:23.191Z,930.2
2019-01-11T02:35:36.148Z,930.2
2019-01-11T02:35:48.655Z,930.19
2019-01-11T02:36:01.606Z,930.21
2019-01-11T02:36:14.553Z,930.17
2019-01-11T02:36:27.521Z,930.15
2019-01-11T02:36:40.566Z,930.14
2019-01-11T02:36:53.565Z,930.19
2019-01-11T02:37:06.541Z,930.16
2019-01-11T02:37:19.527Z,930.16
2019-01-11T02:37:32.531Z,930.14
2019-01-11T02:37:45.584Z,930.21
2019-01-11T02:37:58.514Z,930.24
2019-01-11T02:38:11.470Z,930.28
2019-01-11T02:38:24.478Z,930.24
2019-01-11T02:38:37.495Z,930.23
2019-01-11T02:38:50.492Z,930.24
2019-01-11T02:39:03.461Z,930.24
2019-01-11T02:39:16.451Z,930.28
2019-01-11T02:39:29.494Z,930.27
2019-01-11T02:39:42.464Z,930.28
2019-01-11T02:39:55.477Z,930.27
2019-01-11T02:40:08.513Z,930.31
2019-01-11T02:40:21.536Z,930.28
2019-01-11T02:40:34.605Z,930.29
2019-01-11T02:40:47.605Z,930.29
2019-01-11T02:41:00.509Z,930.3
2019-01-11T02:41:13.502Z,930.37
2019-01-11T02:41:26.451Z,930.34
2019-01-11T02:41:39.406Z,930.34
2019-01-11T02:41:52.361Z,930.34
2019-01-11T02:42:05.314Z,930.33
2019-01-11T02:42:18.312Z,930.33
2019-01-11T02:42:30.854Z,930.36
2019-01-11T02:42:43.854Z,930.31
2019-01-11T02:42:56.811Z,930.39
2019-01-11T02:43:09.815Z,930.37
2019-01-11T02:43:22.831Z,930.34
2019-01-11T02:43:35.791Z,930.37
2019-01-11T02:43:48.803Z,930.37